sensor_id;sensor_type;location;lat;lon;timestamp;P1;durP1;ratioP1;P2;durP2;ratioP2
2111;SDS011;1062;52.538;13.400;2023-03-02T00:01:27;28.07;;;13.53;;
2111;SDS011;1062;52.538;13.400;2023-03-02T00:04:02;19.23;;;13.87;;
2111;SDS011;1062;52.538;13.400;2023-03-02T00:06:31;21.27;;;13.73;;
2111;SDS011;1062;52.538;13.400;2023-03-02T00:09:00;19.40;;;14.10;;
2111;SDS011;1062;52.538;13.400;2023-03-02T00:11:29;20.83;;;13.77;;
2111;SDS011;1062;52.538;13.400;2023-03-02T00:13:55;22.27;;;12.80;;
2111;SDS011;1062;52.538;13.400;2023-03-02T00:16:21;18.90;;;14.10;;
2111;SDS011;1062;52.538;13.400;2023-03-02T00:18:47;20.60;;;13.77;;
2111;SDS011;1062;52.538;13.400;2023-03-02T00:21:13;23.30;;;14.90;;
2111;SDS011;1062;52.538;13.400;2023-03-02T00:23:39;25.87;;;16.27;;
2111;SDS011;1062;52.538;13.400;2023-03-02T00:26:05;22.20;;;13.67;;
2111;SDS011;1062;52.538;13.400;2023-03-02T00:28:31;23.17;;;14.40;;
2111;SDS011;1062;52.538;13.400;2023-03-02T00:30:57;27.90;;;16.27;;
2111;SDS011;1062;52.538;13.400;2023-03-02T00:33:23;20.87;;;15.70;;
2111;SDS011;1062;52.538;13.400;2023-03-02T00:35:48;22.77;;;15.20;;
2111;SDS011;1062;52.538;13.400;2023-03-02T00:38:14;25.33;;;15.80;;
2111;SDS011;1062;52.538;13.400;2023-03-02T00:40:44;16.73;;;13.07;;
2111;SDS011;1062;52.538;13.400;2023-03-02T00:43:11;20.00;;;15.60;;
2111;SDS011;1062;52.538;13.400;2023-03-02T00:45:37;19.67;;;13.27;;
2111;SDS011;1062;52.538;13.400;2023-03-02T00:48:03;19.73;;;13.03;;
2111;SDS011;1062;52.538;13.400;2023-03-02T00:50:28;24.23;;;14.13;;
2111;SDS011;1062;52.538;13.400;2023-03-02T00:52:54;19.63;;;12.93;;
2111;SDS011;1062;52.538;13.400;2023-03-02T00:55:20;20.07;;;14.60;;
2111;SDS011;1062;52.538;13.400;2023-03-02T00:57:45;17.13;;;13.17;;
2111;SDS011;1062;52.538;13.400;2023-03-02T01:00:19;14.83;;;11.80;;
2111;SDS011;1062;52.538;13.400;2023-03-02T01:02:46;21.80;;;11.57;;
2111;SDS011;1062;52.538;13.400;2023-03-02T01:05:13;18.03;;;11.77;;
2111;SDS011;1062;52.538;13.400;2023-03-02T01:07:39;19.40;;;13.00;;
2111;SDS011;1062;52.538;13.400;2023-03-02T01:10:04;22.10;;;11.83;;
2111;SDS011;1062;52.538;13.400;2023-03-02T01:12:31;18.10;;;12.57;;
2111;SDS011;1062;52.538;13.400;2023-03-02T01:14:57;16.70;;;11.83;;
2111;SDS011;1062;52.538;13.400;2023-03-02T01:17:22;18.80;;;11.10;;
2111;SDS011;1062;52.538;13.400;2023-03-02T01:19:49;15.20;;;11.20;;
2111;SDS011;1062;52.538;13.400;2023-03-02T01:22:16;17.97;;;11.10;;
2111;SDS011;1062;52.538;13.400;2023-03-02T01:24:42;18.30;;;12.80;;
2111;SDS011;1062;52.538;13.400;2023-03-02T01:27:08;19.73;;;11.07;;
2111;SDS011;1062;52.538;13.400;2023-03-02T01:29:34;16.13;;;10.13;;
2111;SDS011;1062;52.538;13.400;2023-03-02T01:32:00;13.43;;;10.10;;
2111;SDS011;1062;52.538;13.400;2023-03-02T01:34:25;18.13;;;11.40;;
2111;SDS011;1062;52.538;13.400;2023-03-02T01:36:51;17.50;;;9.73;;
2111;SDS011;1062;52.538;13.400;2023-03-02T01:39:17;16.90;;;9.80;;
2111;SDS011;1062;52.538;13.400;2023-03-02T01:48:08;14.27;;;9.00;;
2111;SDS011;1062;52.538;13.400;2023-03-02T01:50:36;18.17;;;9.97;;
2111;SDS011;1062;52.538;13.400;2023-03-02T01:53:02;15.90;;;11.03;;
2111;SDS011;1062;52.538;13.400;2023-03-02T01:55:28;16.20;;;10.03;;
2111;SDS011;1062;52.538;13.400;2023-03-02T01:57:56;18.33;;;10.60;;
2111;SDS011;1062;52.538;13.400;2023-03-02T02:00:26;13.90;;;10.00;;
2111;SDS011;1062;52.538;13.400;2023-03-02T02:02:56;16.10;;;10.07;;
2111;SDS011;1062;52.538;13.400;2023-03-02T02:05:32;12.17;;;10.07;;
2111;SDS011;1062;52.538;13.400;2023-03-02T02:08:01;13.87;;;9.57;;
2111;SDS011;1062;52.538;13.400;2023-03-02T02:10:27;18.17;;;12.07;;
2111;SDS011;1062;52.538;13.400;2023-03-02T02:12:53;15.53;;;9.27;;
2111;SDS011;1062;52.538;13.400;2023-03-02T02:15:19;17.00;;;10.63;;
2111;SDS011;1062;52.538;13.400;2023-03-02T02:17:45;17.03;;;8.93;;
2111;SDS011;1062;52.538;13.400;2023-03-02T02:20:27;14.63;;;9.23;;
2111;SDS011;1062;52.538;13.400;2023-03-02T02:28:15;20.13;;;12.70;;
2111;SDS011;1062;52.538;13.400;2023-03-02T02:30:48;12.13;;;8.80;;
2111;SDS011;1062;52.538;13.400;2023-03-02T02:33:21;17.73;;;9.53;;
2111;SDS011;1062;52.538;13.400;2023-03-02T02:35:48;12.43;;;9.20;;
2111;SDS011;1062;52.538;13.400;2023-03-02T02:38:18;14.97;;;9.10;;
2111;SDS011;1062;52.538;13.400;2023-03-02T02:43:18;13.70;;;10.43;;
2111;SDS011;1062;52.538;13.400;2023-03-02T02:45:45;12.37;;;10.17;;
2111;SDS011;1062;52.538;13.400;2023-03-02T02:48:15;14.27;;;10.60;;
2111;SDS011;1062;52.538;13.400;2023-03-02T02:50:43;14.50;;;10.13;;
2111;SDS011;1062;52.538;13.400;2023-03-02T02:53:11;20.73;;;11.90;;
2111;SDS011;1062;52.538;13.400;2023-03-02T02:55:43;15.50;;;9.87;;
2111;SDS011;1062;52.538;13.400;2023-03-02T02:58:16;13.73;;;11.23;;
2111;SDS011;1062;52.538;13.400;2023-03-02T03:01:05;13.70;;;10.70;;
2111;SDS011;1062;52.538;13.400;2023-03-02T03:03:32;21.13;;;10.90;;
2111;SDS011;1062;52.538;13.400;2023-03-02T03:06:01;14.50;;;9.33;;
2111;SDS011;1062;52.538;13.400;2023-03-02T03:11:11;17.57;;;10.47;;
2111;SDS011;1062;52.538;13.400;2023-03-02T03:13:39;16.90;;;12.07;;
2111;SDS011;1062;52.538;13.400;2023-03-02T03:16:06;18.40;;;11.00;;
2111;SDS011;1062;52.538;13.400;2023-03-02T03:18:36;13.23;;;10.97;;
2111;SDS011;1062;52.538;13.400;2023-03-02T03:21:02;20.17;;;11.87;;
2111;SDS011;1062;52.538;13.400;2023-03-02T03:23:28;16.17;;;12.17;;
2111;SDS011;1062;52.538;13.400;2023-03-02T03:25:54;19.20;;;10.27;;
2111;SDS011;1062;52.538;13.400;2023-03-02T03:28:19;23.87;;;12.33;;
2111;SDS011;1062;52.538;13.400;2023-03-02T03:30:45;13.33;;;9.33;;
2111;SDS011;1062;52.538;13.400;2023-03-02T03:33:11;21.57;;;11.40;;
2111;SDS011;1062;52.538;13.400;2023-03-02T03:35:36;18.60;;;12.70;;
2111;SDS011;1062;52.538;13.400;2023-03-02T03:38:03;13.73;;;10.70;;
2111;SDS011;1062;52.538;13.400;2023-03-02T03:40:29;14.13;;;11.47;;
2111;SDS011;1062;52.538;13.400;2023-03-02T03:42:58;17.40;;;11.70;;
2111;SDS011;1062;52.538;13.400;2023-03-02T03:45:24;20.53;;;11.90;;
2111;SDS011;1062;52.538;13.400;2023-03-02T03:47:50;17.10;;;10.90;;
2111;SDS011;1062;52.538;13.400;2023-03-02T03:50:16;19.23;;;14.10;;
2111;SDS011;1062;52.538;13.400;2023-03-02T03:52:42;23.00;;;11.53;;
2111;SDS011;1062;52.538;13.400;2023-03-02T03:55:07;22.43;;;11.33;;
2111;SDS011;1062;52.538;13.400;2023-03-02T03:57:34;16.10;;;9.10;;
2111;SDS011;1062;52.538;13.400;2023-03-02T03:59:59;22.90;;;11.47;;
2111;SDS011;1062;52.538;13.400;2023-03-02T04:02:25;19.87;;;12.70;;
2111;SDS011;1062;52.538;13.400;2023-03-02T04:04:50;16.93;;;12.00;;
2111;SDS011;1062;52.538;13.400;2023-03-02T04:07:16;22.87;;;10.80;;
2111;SDS011;1062;52.538;13.400;2023-03-02T04:09:42;12.50;;;9.20;;
2111;SDS011;1062;52.538;13.400;2023-03-02T04:12:08;14.00;;;9.90;;
2111;SDS011;1062;52.538;13.400;2023-03-02T04:14:34;19.53;;;9.87;;
2111;SDS011;1062;52.538;13.400;2023-03-02T04:17:00;19.23;;;10.27;;
2111;SDS011;1062;52.538;13.400;2023-03-02T04:19:29;17.07;;;10.57;;
2111;SDS011;1062;52.538;13.400;2023-03-02T04:21:55;19.43;;;11.03;;
2111;SDS011;1062;52.538;13.400;2023-03-02T04:24:22;12.70;;;9.43;;
2111;SDS011;1062;52.538;13.400;2023-03-02T04:26:48;13.83;;;10.03;;
2111;SDS011;1062;52.538;13.400;2023-03-02T04:29:15;14.67;;;8.80;;
2111;SDS011;1062;52.538;13.400;2023-03-02T04:31:41;14.13;;;10.13;;
2111;SDS011;1062;52.538;13.400;2023-03-02T04:34:07;16.27;;;9.63;;
2111;SDS011;1062;52.538;13.400;2023-03-02T04:36:34;16.10;;;10.77;;
2111;SDS011;1062;52.538;13.400;2023-03-02T04:39:01;13.63;;;9.63;;
2111;SDS011;1062;52.538;13.400;2023-03-02T04:41:28;14.80;;;9.90;;
2111;SDS011;1062;52.538;13.400;2023-03-02T04:43:53;15.63;;;11.03;;
2111;SDS011;1062;52.538;13.400;2023-03-02T04:46:20;13.40;;;9.00;;
2111;SDS011;1062;52.538;13.400;2023-03-02T04:48:48;16.50;;;10.60;;
2111;SDS011;1062;52.538;13.400;2023-03-02T04:51:24;15.77;;;11.10;;
2111;SDS011;1062;52.538;13.400;2023-03-02T04:53:52;17.60;;;10.57;;
2111;SDS011;1062;52.538;13.400;2023-03-02T04:56:19;19.17;;;13.20;;
2111;SDS011;1062;52.538;13.400;2023-03-02T04:58:45;16.87;;;11.03;;
2111;SDS011;1062;52.538;13.400;2023-03-02T05:01:12;17.13;;;11.77;;
2111;SDS011;1062;52.538;13.400;2023-03-02T05:03:39;16.00;;;11.00;;
2111;SDS011;1062;52.538;13.400;2023-03-02T05:06:05;18.73;;;11.10;;
2111;SDS011;1062;52.538;13.400;2023-03-02T05:08:31;17.60;;;10.87;;
2111;SDS011;1062;52.538;13.400;2023-03-02T05:10:56;15.80;;;11.00;;
2111;SDS011;1062;52.538;13.400;2023-03-02T05:13:23;17.13;;;10.57;;
2111;SDS011;1062;52.538;13.400;2023-03-02T05:15:49;26.70;;;13.20;;
2111;SDS011;1062;52.538;13.400;2023-03-02T05:18:15;21.07;;;13.03;;
2111;SDS011;1062;52.538;13.400;2023-03-02T05:20:42;21.10;;;12.80;;
2111;SDS011;1062;52.538;13.400;2023-03-02T05:23:09;18.20;;;12.97;;
2111;SDS011;1062;52.538;13.400;2023-03-02T05:25:35;21.67;;;12.13;;
2111;SDS011;1062;52.538;13.400;2023-03-02T05:28:02;23.80;;;14.73;;
2111;SDS011;1062;52.538;13.400;2023-03-02T05:30:29;22.03;;;13.80;;
2111;SDS011;1062;52.538;13.400;2023-03-02T05:32:56;22.97;;;13.47;;
2111;SDS011;1062;52.538;13.400;2023-03-02T05:35:22;27.47;;;16.77;;
2111;SDS011;1062;52.538;13.400;2023-03-02T05:37:49;19.33;;;11.90;;
2111;SDS011;1062;52.538;13.400;2023-03-02T05:40:17;28.07;;;14.10;;
2111;SDS011;1062;52.538;13.400;2023-03-02T05:42:44;22.13;;;14.27;;
2111;SDS011;1062;52.538;13.400;2023-03-02T05:45:17;24.10;;;13.10;;
2111;SDS011;1062;52.538;13.400;2023-03-02T05:47:56;19.73;;;12.60;;
2111;SDS011;1062;52.538;13.400;2023-03-02T05:50:22;21.93;;;14.70;;
2111;SDS011;1062;52.538;13.400;2023-03-02T05:52:47;21.10;;;12.70;;
2111;SDS011;1062;52.538;13.400;2023-03-02T05:55:14;22.73;;;13.90;;
2111;SDS011;1062;52.538;13.400;2023-03-02T05:57:40;17.87;;;11.23;;
2111;SDS011;1062;52.538;13.400;2023-03-02T06:00:06;21.27;;;13.37;;
2111;SDS011;1062;52.538;13.400;2023-03-02T06:02:34;23.00;;;12.87;;
2111;SDS011;1062;52.538;13.400;2023-03-02T06:04:59;28.83;;;15.90;;
2111;SDS011;1062;52.538;13.400;2023-03-02T06:07:25;31.33;;;15.70;;
2111;SDS011;1062;52.538;13.400;2023-03-02T06:09:51;29.60;;;15.60;;
2111;SDS011;1062;52.538;13.400;2023-03-02T06:12:17;24.17;;;13.87;;
2111;SDS011;1062;52.538;13.400;2023-03-02T06:14:43;28.60;;;14.30;;
2111;SDS011;1062;52.538;13.400;2023-03-02T06:17:08;26.50;;;15.10;;
2111;SDS011;1062;52.538;13.400;2023-03-02T06:19:34;24.53;;;13.87;;
2111;SDS011;1062;52.538;13.400;2023-03-02T06:22:00;28.90;;;14.40;;
2111;SDS011;1062;52.538;13.400;2023-03-02T06:24:26;23.83;;;13.30;;
2111;SDS011;1062;52.538;13.400;2023-03-02T06:26:53;19.53;;;13.97;;
2111;SDS011;1062;52.538;13.400;2023-03-02T06:29:19;27.97;;;11.77;;
2111;SDS011;1062;52.538;13.400;2023-03-02T06:31:45;28.83;;;15.33;;
2111;SDS011;1062;52.538;13.400;2023-03-02T06:34:11;29.00;;;12.97;;
2111;SDS011;1062;52.538;13.400;2023-03-02T06:36:36;35.13;;;15.13;;
2111;SDS011;1062;52.538;13.400;2023-03-02T06:39:03;24.80;;;13.30;;
2111;SDS011;1062;52.538;13.400;2023-03-02T06:41:29;22.80;;;14.87;;
2111;SDS011;1062;52.538;13.400;2023-03-02T06:43:57;26.70;;;15.03;;
2111;SDS011;1062;52.538;13.400;2023-03-02T06:46:25;27.80;;;13.10;;
2111;SDS011;1062;52.538;13.400;2023-03-02T06:48:51;40.47;;;13.90;;
2111;SDS011;1062;52.538;13.400;2023-03-02T06:51:17;23.40;;;11.50;;
2111;SDS011;1062;52.538;13.400;2023-03-02T06:53:43;17.57;;;11.00;;
2111;SDS011;1062;52.538;13.400;2023-03-02T06:56:08;25.10;;;12.90;;
2111;SDS011;1062;52.538;13.400;2023-03-02T06:58:35;23.73;;;12.40;;
2111;SDS011;1062;52.538;13.400;2023-03-02T07:01:01;28.67;;;12.23;;
2111;SDS011;1062;52.538;13.400;2023-03-02T07:03:27;29.50;;;14.10;;
2111;SDS011;1062;52.538;13.400;2023-03-02T07:05:52;24.13;;;12.97;;
2111;SDS011;1062;52.538;13.400;2023-03-02T07:08:18;23.00;;;9.93;;
2111;SDS011;1062;52.538;13.400;2023-03-02T07:10:44;23.60;;;13.30;;
2111;SDS011;1062;52.538;13.400;2023-03-02T07:13:09;19.47;;;11.17;;
2111;SDS011;1062;52.538;13.400;2023-03-02T07:15:37;21.93;;;10.90;;
2111;SDS011;1062;52.538;13.400;2023-03-02T07:18:03;19.93;;;11.77;;
2111;SDS011;1062;52.538;13.400;2023-03-02T07:20:29;23.50;;;12.30;;
2111;SDS011;1062;52.538;13.400;2023-03-02T07:22:55;18.67;;;12.73;;
2111;SDS011;1062;52.538;13.400;2023-03-02T07:25:21;21.53;;;10.87;;
2111;SDS011;1062;52.538;13.400;2023-03-02T07:27:46;25.03;;;12.33;;
2111;SDS011;1062;52.538;13.400;2023-03-02T07:30:12;21.73;;;12.20;;
2111;SDS011;1062;52.538;13.400;2023-03-02T07:32:39;21.90;;;13.40;;
2111;SDS011;1062;52.538;13.400;2023-03-02T07:35:05;21.70;;;12.03;;
2111;SDS011;1062;52.538;13.400;2023-03-02T07:37:31;26.90;;;10.77;;
2111;SDS011;1062;52.538;13.400;2023-03-02T07:39:57;20.57;;;10.57;;
2111;SDS011;1062;52.538;13.400;2023-03-02T07:42:23;49.17;;;14.63;;
2111;SDS011;1062;52.538;13.400;2023-03-02T07:44:50;34.33;;;13.67;;
2111;SDS011;1062;52.538;13.400;2023-03-02T07:47:17;23.50;;;13.93;;
2111;SDS011;1062;52.538;13.400;2023-03-02T07:49:43;32.43;;;10.80;;
2111;SDS011;1062;52.538;13.400;2023-03-02T07:52:08;28.50;;;11.73;;
2111;SDS011;1062;52.538;13.400;2023-03-02T07:54:34;36.07;;;14.40;;
2111;SDS011;1062;52.538;13.400;2023-03-02T07:57:00;25.73;;;13.77;;
2111;SDS011;1062;52.538;13.400;2023-03-02T07:59:26;29.37;;;12.27;;
2111;SDS011;1062;52.538;13.400;2023-03-02T08:01:52;26.60;;;12.50;;
2111;SDS011;1062;52.538;13.400;2023-03-02T08:04:18;30.13;;;12.47;;
2111;SDS011;1062;52.538;13.400;2023-03-02T08:06:44;28.97;;;14.53;;
2111;SDS011;1062;52.538;13.400;2023-03-02T08:09:09;24.27;;;12.77;;
2111;SDS011;1062;52.538;13.400;2023-03-02T08:11:35;28.53;;;13.57;;
2111;SDS011;1062;52.538;13.400;2023-03-02T08:14:01;26.57;;;13.07;;
2111;SDS011;1062;52.538;13.400;2023-03-02T08:16:27;33.97;;;16.60;;
2111;SDS011;1062;52.538;13.400;2023-03-02T08:18:53;32.97;;;16.00;;
2111;SDS011;1062;52.538;13.400;2023-03-02T08:21:21;31.00;;;16.90;;
2111;SDS011;1062;52.538;13.400;2023-03-02T08:23:48;27.40;;;16.30;;
2111;SDS011;1062;52.538;13.400;2023-03-02T08:26:14;27.30;;;16.27;;
2111;SDS011;1062;52.538;13.400;2023-03-02T08:28:41;22.33;;;12.90;;
2111;SDS011;1062;52.538;13.400;2023-03-02T08:31:07;35.93;;;15.40;;
2111;SDS011;1062;52.538;13.400;2023-03-02T08:33:34;32.27;;;14.40;;
2111;SDS011;1062;52.538;13.400;2023-03-02T08:36:02;25.27;;;14.00;;
2111;SDS011;1062;52.538;13.400;2023-03-02T08:38:32;27.80;;;15.53;;
2111;SDS011;1062;52.538;13.400;2023-03-02T08:41:01;27.33;;;14.77;;
2111;SDS011;1062;52.538;13.400;2023-03-02T08:43:28;30.33;;;13.70;;
2111;SDS011;1062;52.538;13.400;2023-03-02T08:45:55;26.67;;;15.33;;
2111;SDS011;1062;52.538;13.400;2023-03-02T08:48:22;29.97;;;13.93;;
2111;SDS011;1062;52.538;13.400;2023-03-02T08:50:58;25.60;;;14.70;;
2111;SDS011;1062;52.538;13.400;2023-03-02T08:53:30;28.13;;;14.50;;
2111;SDS011;1062;52.538;13.400;2023-03-02T08:55:58;27.50;;;13.80;;
2111;SDS011;1062;52.538;13.400;2023-03-02T08:58:23;24.60;;;12.80;;
2111;SDS011;1062;52.538;13.400;2023-03-02T09:00:49;28.53;;;15.40;;
2111;SDS011;1062;52.538;13.400;2023-03-02T09:03:15;28.73;;;14.03;;
2111;SDS011;1062;52.538;13.400;2023-03-02T09:05:41;29.63;;;16.90;;
2111;SDS011;1062;52.538;13.400;2023-03-02T09:08:07;28.97;;;14.60;;
2111;SDS011;1062;52.538;13.400;2023-03-02T09:10:33;26.20;;;14.70;;
2111;SDS011;1062;52.538;13.400;2023-03-02T09:12:59;22.40;;;14.30;;
2111;SDS011;1062;52.538;13.400;2023-03-02T09:15:25;24.37;;;15.70;;
2111;SDS011;1062;52.538;13.400;2023-03-02T09:17:50;26.00;;;14.43;;
2111;SDS011;1062;52.538;13.400;2023-03-02T09:20:16;27.00;;;14.80;;
2111;SDS011;1062;52.538;13.400;2023-03-02T09:22:41;22.60;;;14.37;;
2111;SDS011;1062;52.538;13.400;2023-03-02T09:25:12;25.00;;;14.77;;
2111;SDS011;1062;52.538;13.400;2023-03-02T09:27:38;22.90;;;14.97;;
2111;SDS011;1062;52.538;13.400;2023-03-02T09:30:05;24.70;;;13.20;;
2111;SDS011;1062;52.538;13.400;2023-03-02T09:32:32;23.63;;;14.60;;
2111;SDS011;1062;52.538;13.400;2023-03-02T09:34:57;20.40;;;13.10;;
2111;SDS011;1062;52.538;13.400;2023-03-02T09:37:23;18.97;;;11.70;;
2111;SDS011;1062;52.538;13.400;2023-03-02T09:39:49;28.00;;;15.10;;
2111;SDS011;1062;52.538;13.400;2023-03-02T09:42:59;23.57;;;13.73;;
2111;SDS011;1062;52.538;13.400;2023-03-02T09:50:35;20.43;;;12.27;;
2111;SDS011;1062;52.538;13.400;2023-03-02T09:55:54;19.30;;;11.93;;
2111;SDS011;1062;52.538;13.400;2023-03-02T09:58:24;20.10;;;11.70;;
2111;SDS011;1062;52.538;13.400;2023-03-02T10:01:00;20.40;;;11.83;;
2111;SDS011;1062;52.538;13.400;2023-03-02T10:03:53;18.33;;;12.00;;
2111;SDS011;1062;52.538;13.400;2023-03-02T10:06:21;18.30;;;10.40;;
2111;SDS011;1062;52.538;13.400;2023-03-02T10:08:47;24.70;;;13.03;;
2111;SDS011;1062;52.538;13.400;2023-03-02T10:11:28;16.50;;;11.90;;
2111;SDS011;1062;52.538;13.400;2023-03-02T10:14:17;16.10;;;9.80;;
2111;SDS011;1062;52.538;13.400;2023-03-02T10:16:53;18.80;;;10.93;;
2111;SDS011;1062;52.538;13.400;2023-03-02T10:19:40;23.13;;;12.63;;
2111;SDS011;1062;52.538;13.400;2023-03-02T10:25:01;20.80;;;13.00;;
2111;SDS011;1062;52.538;13.400;2023-03-02T10:27:37;22.30;;;11.33;;
2111;SDS011;1062;52.538;13.400;2023-03-02T10:32:51;18.77;;;10.90;;
2111;SDS011;1062;52.538;13.400;2023-03-02T10:35:20;24.27;;;11.07;;
2111;SDS011;1062;52.538;13.400;2023-03-02T10:37:47;20.87;;;11.23;;
2111;SDS011;1062;52.538;13.400;2023-03-02T10:40:27;15.30;;;10.53;;
2111;SDS011;1062;52.538;13.400;2023-03-02T10:42:58;21.27;;;12.60;;
2111;SDS011;1062;52.538;13.400;2023-03-02T10:45:28;17.93;;;12.30;;
2111;SDS011;1062;52.538;13.400;2023-03-02T10:48:03;16.70;;;10.17;;
2111;SDS011;1062;52.538;13.400;2023-03-02T10:50:36;23.20;;;11.63;;
2111;SDS011;1062;52.538;13.400;2023-03-02T10:53:04;15.40;;;10.60;;
2111;SDS011;1062;52.538;13.400;2023-03-02T10:55:32;15.60;;;10.27;;
2111;SDS011;1062;52.538;13.400;2023-03-02T10:58:03;20.20;;;13.20;;
2111;SDS011;1062;52.538;13.400;2023-03-02T11:00:30;16.90;;;10.40;;
2111;SDS011;1062;52.538;13.400;2023-03-02T11:02:58;18.07;;;10.77;;
2111;SDS011;1062;52.538;13.400;2023-03-02T11:05:39;22.30;;;12.07;;
2111;SDS011;1062;52.538;13.400;2023-03-02T11:08:08;14.30;;;10.37;;
2111;SDS011;1062;52.538;13.400;2023-03-02T11:10:49;15.13;;;9.30;;
2111;SDS011;1062;52.538;13.400;2023-03-02T11:13:26;18.80;;;10.27;;
2111;SDS011;1062;52.538;13.400;2023-03-02T11:15:55;21.67;;;10.40;;
2111;SDS011;1062;52.538;13.400;2023-03-02T11:21:05;13.97;;;10.43;;
2111;SDS011;1062;52.538;13.400;2023-03-02T11:23:40;14.90;;;9.40;;
2111;SDS011;1062;52.538;13.400;2023-03-02T11:26:28;17.80;;;10.57;;
2111;SDS011;1062;52.538;13.400;2023-03-02T11:44:48;17.20;;;12.20;;
2111;SDS011;1062;52.538;13.400;2023-03-02T11:47:14;15.73;;;11.70;;
2111;SDS011;1062;52.538;13.400;2023-03-02T11:49:43;15.27;;;10.60;;
2111;SDS011;1062;52.538;13.400;2023-03-02T11:52:22;16.20;;;10.60;;
2111;SDS011;1062;52.538;13.400;2023-03-02T11:57:28;16.73;;;10.50;;
2111;SDS011;1062;52.538;13.400;2023-03-02T12:00:04;18.00;;;10.80;;
2111;SDS011;1062;52.538;13.400;2023-03-02T12:02:39;18.33;;;12.50;;
2111;SDS011;1062;52.538;13.400;2023-03-02T12:05:26;22.20;;;11.60;;
2111;SDS011;1062;52.538;13.400;2023-03-02T12:07:59;18.73;;;11.20;;
2111;SDS011;1062;52.538;13.400;2023-03-02T12:13:01;17.53;;;8.73;;
2111;SDS011;1062;52.538;13.400;2023-03-02T12:15:41;16.13;;;11.13;;
2111;SDS011;1062;52.538;13.400;2023-03-02T12:18:25;17.40;;;10.20;;
2111;SDS011;1062;52.538;13.400;2023-03-02T12:20:59;16.70;;;10.73;;
2111;SDS011;1062;52.538;13.400;2023-03-02T12:23:27;13.17;;;9.87;;
2111;SDS011;1062;52.538;13.400;2023-03-02T12:26:05;14.90;;;9.43;;
2111;SDS011;1062;52.538;13.400;2023-03-02T12:28:35;15.90;;;10.77;;
2111;SDS011;1062;52.538;13.400;2023-03-02T12:33:42;17.83;;;11.90;;
2111;SDS011;1062;52.538;13.400;2023-03-02T12:36:11;21.03;;;10.67;;
2111;SDS011;1062;52.538;13.400;2023-03-02T12:38:40;15.00;;;9.70;;
2111;SDS011;1062;52.538;13.400;2023-03-02T12:41:27;17.23;;;10.60;;
2111;SDS011;1062;52.538;13.400;2023-03-02T12:46:43;20.27;;;10.37;;
2111;SDS011;1062;52.538;13.400;2023-03-02T12:49:28;11.50;;;9.30;;
2111;SDS011;1062;52.538;13.400;2023-03-02T12:52:19;14.63;;;10.13;;
2111;SDS011;1062;52.538;13.400;2023-03-02T12:55:00;15.00;;;10.33;;
2111;SDS011;1062;52.538;13.400;2023-03-02T12:57:49;21.80;;;12.70;;
2111;SDS011;1062;52.538;13.400;2023-03-02T13:00:18;12.47;;;8.63;;
2111;SDS011;1062;52.538;13.400;2023-03-02T13:02:46;16.33;;;10.73;;
2111;SDS011;1062;52.538;13.400;2023-03-02T13:05:21;16.07;;;10.20;;
2111;SDS011;1062;52.538;13.400;2023-03-02T13:08:07;15.63;;;9.27;;
2111;SDS011;1062;52.538;13.400;2023-03-02T13:10:48;16.03;;;10.17;;
2111;SDS011;1062;52.538;13.400;2023-03-02T13:13:23;23.50;;;12.73;;
2111;SDS011;1062;52.538;13.400;2023-03-02T13:15:55;15.17;;;9.33;;
2111;SDS011;1062;52.538;13.400;2023-03-02T13:18:27;15.63;;;9.57;;
2111;SDS011;1062;52.538;13.400;2023-03-02T13:20:58;14.67;;;10.97;;
2111;SDS011;1062;52.538;13.400;2023-03-02T13:23:25;16.13;;;10.53;;
2111;SDS011;1062;52.538;13.400;2023-03-02T13:25:53;12.90;;;8.67;;
2111;SDS011;1062;52.538;13.400;2023-03-02T13:28:21;16.93;;;10.03;;
2111;SDS011;1062;52.538;13.400;2023-03-02T13:30:54;13.53;;;8.80;;
2111;SDS011;1062;52.538;13.400;2023-03-02T13:33:27;14.80;;;8.87;;
2111;SDS011;1062;52.538;13.400;2023-03-02T13:35:55;21.50;;;10.13;;
2111;SDS011;1062;52.538;13.400;2023-03-02T13:38:21;16.50;;;9.63;;
2111;SDS011;1062;52.538;13.400;2023-03-02T13:40:54;12.33;;;7.33;;
2111;SDS011;1062;52.538;13.400;2023-03-02T13:46:00;11.17;;;8.17;;
2111;SDS011;1062;52.538;13.400;2023-03-02T13:48:56;12.27;;;8.10;;
2111;SDS011;1062;52.538;13.400;2023-03-02T13:51:28;12.60;;;7.70;;
2111;SDS011;1062;52.538;13.400;2023-03-02T13:53:57;15.43;;;8.27;;
2111;SDS011;1062;52.538;13.400;2023-03-02T13:56:29;11.90;;;7.00;;
2111;SDS011;1062;52.538;13.400;2023-03-02T13:59:07;12.40;;;7.60;;
2111;SDS011;1062;52.538;13.400;2023-03-02T14:01:38;11.30;;;7.53;;
2111;SDS011;1062;52.538;13.400;2023-03-02T14:04:05;11.17;;;8.23;;
2111;SDS011;1062;52.538;13.400;2023-03-02T14:06:33;9.10;;;7.37;;
2111;SDS011;1062;52.538;13.400;2023-03-02T14:08:59;11.37;;;7.83;;
2111;SDS011;1062;52.538;13.400;2023-03-02T14:11:24;12.10;;;7.70;;
2111;SDS011;1062;52.538;13.400;2023-03-02T14:13:54;9.63;;;7.33;;
2111;SDS011;1062;52.538;13.400;2023-03-02T14:16:20;13.77;;;9.13;;
2111;SDS011;1062;52.538;13.400;2023-03-02T14:18:46;10.03;;;7.03;;
2111;SDS011;1062;52.538;13.400;2023-03-02T14:21:14;12.70;;;8.40;;
2111;SDS011;1062;52.538;13.400;2023-03-02T14:23:45;9.90;;;6.93;;
2111;SDS011;1062;52.538;13.400;2023-03-02T14:28:42;8.57;;;7.00;;
2111;SDS011;1062;52.538;13.400;2023-03-02T14:31:08;10.13;;;6.87;;
2111;SDS011;1062;52.538;13.400;2023-03-02T14:33:35;10.30;;;7.50;;
2111;SDS011;1062;52.538;13.400;2023-03-02T14:36:01;8.40;;;7.33;;
2111;SDS011;1062;52.538;13.400;2023-03-02T14:38:28;12.80;;;7.47;;
2111;SDS011;1062;52.538;13.400;2023-03-02T14:40:55;11.40;;;7.93;;
2111;SDS011;1062;52.538;13.400;2023-03-02T14:43:21;10.60;;;6.97;;
2111;SDS011;1062;52.538;13.400;2023-03-02T14:45:49;10.17;;;7.40;;
2111;SDS011;1062;52.538;13.400;2023-03-02T14:48:16;14.27;;;10.20;;
2111;SDS011;1062;52.538;13.400;2023-03-02T14:50:42;10.87;;;7.37;;
2111;SDS011;1062;52.538;13.400;2023-03-02T14:53:11;10.50;;;8.20;;
2111;SDS011;1062;52.538;13.400;2023-03-02T14:55:46;9.30;;;6.67;;
2111;SDS011;1062;52.538;13.400;2023-03-02T14:58:16;10.50;;;7.17;;
2111;SDS011;1062;52.538;13.400;2023-03-02T15:00:44;9.53;;;7.43;;
2111;SDS011;1062;52.538;13.400;2023-03-02T15:03:14;10.43;;;6.03;;
2111;SDS011;1062;52.538;13.400;2023-03-02T15:05:43;12.23;;;7.30;;
2111;SDS011;1062;52.538;13.400;2023-03-02T15:08:10;11.20;;;7.50;;
2111;SDS011;1062;52.538;13.400;2023-03-02T15:10:37;11.50;;;6.70;;
2111;SDS011;1062;52.538;13.400;2023-03-02T15:13:06;8.87;;;6.70;;
2111;SDS011;1062;52.538;13.400;2023-03-02T15:15:32;6.33;;;5.17;;
2111;SDS011;1062;52.538;13.400;2023-03-02T15:17:58;11.40;;;6.53;;
2111;SDS011;1062;52.538;13.400;2023-03-02T15:20:24;7.67;;;5.03;;
2111;SDS011;1062;52.538;13.400;2023-03-02T15:22:49;10.67;;;7.00;;
2111;SDS011;1062;52.538;13.400;2023-03-02T15:25:15;10.23;;;6.40;;
2111;SDS011;1062;52.538;13.400;2023-03-02T15:27:41;9.13;;;7.00;;
2111;SDS011;1062;52.538;13.400;2023-03-02T15:30:07;9.27;;;6.33;;
2111;SDS011;1062;52.538;13.400;2023-03-02T15:32:34;9.53;;;5.67;;
2111;SDS011;1062;52.538;13.400;2023-03-02T15:35:00;9.80;;;6.20;;
2111;SDS011;1062;52.538;13.400;2023-03-02T15:37:27;10.70;;;7.30;;
2111;SDS011;1062;52.538;13.400;2023-03-02T15:39:54;11.63;;;8.50;;
2111;SDS011;1062;52.538;13.400;2023-03-02T15:42:20;12.30;;;7.97;;
2111;SDS011;1062;52.538;13.400;2023-03-02T15:44:46;11.50;;;7.93;;
2111;SDS011;1062;52.538;13.400;2023-03-02T15:47:12;13.10;;;8.40;;
2111;SDS011;1062;52.538;13.400;2023-03-02T15:49:37;17.47;;;9.43;;
2111;SDS011;1062;52.538;13.400;2023-03-02T15:52:03;21.23;;;10.63;;